createdAt,value
2017-08-20T00:01:10.251Z,77.53
2017-08-20T00:03:39.034Z,78.06
2017-08-20T00:06:07.511Z,78.13
2017-08-20T00:08:37.650Z,77.95
2017-08-20T00:11:06.656Z,77.65
2017-08-20T00:13:36.086Z,79.46
2017-08-20T00:16:05.442Z,78.88
2017-08-20T00:18:35.504Z,79.74
2017-08-20T00:21:04.375Z,79.66
2017-08-20T00:23:33.592Z,79.81
2017-08-20T00:26:02.390Z,79.72
2017-08-20T00:28:32.708Z,79.49
2017-08-20T00:31:02.082Z,79.25
2017-08-20T00:33:30.799Z,78.44
2017-08-20T00:35:59.277Z,79.89
2017-08-20T00:38:28.775Z,79.51
2017-08-20T00:40:58.893Z,79.30
2017-08-20T00:43:27.863Z,79.26
2017-08-20T00:45:56.673Z,79.33
2017-08-20T00:48:26.514Z,79.66
2017-08-20T00:50:55.205Z,79.08
2017-08-20T00:53:25.600Z,79.22
2017-08-20T00:55:55.101Z,79.21
2017-08-20T00:58:23.605Z,80.19
2017-08-20T01:00:52.429Z,80.44
2017-08-20T01:03:22.176Z,80.76
2017-08-20T01:05:51.356Z,80.12
2017-08-20T01:08:22.989Z,80.48
2017-08-20T01:10:52.181Z,80.42
2017-08-20T01:13:25.836Z,81.11
2017-08-20T01:15:59.016Z,81.04
2017-08-20T01:18:31.668Z,80.68
2017-08-20T01:21:00.733Z,80.49
2017-08-20T01:23:30.250Z,80.66
2017-08-20T01:25:58.774Z,80.08
2017-08-20T01:28:27.252Z,80.40
2017-08-20T01:30:56.020Z,79.55
2017-08-20T01:33:24.454Z,80.22
2017-08-20T01:35:53.305Z,80.11
2017-08-20T01:38:22.029Z,80.28
2017-08-20T01:40:50.461Z,80.17
2017-08-20T01:43:19.374Z,80.79
2017-08-20T01:45:48.432Z,80.75
2017-08-20T01:48:20.757Z,80.48
2017-08-20T01:50:50.580Z,80.61
2017-08-20T01:53:19.101Z,81.00
2017-08-20T01:55:48.025Z,80.39
2017-08-20T01:58:17.389Z,81.55
2017-08-20T02:00:46.797Z,81.15
2017-08-20T02:03:16.433Z,81.29
2017-08-20T02:05:45.078Z,80.75
2017-08-20T02:08:13.780Z,80.61
2017-08-20T02:10:44.725Z,81.26
2017-08-20T02:13:13.819Z,81.79
2017-08-20T02:15:42.428Z,81.33
2017-08-20T02:18:10.833Z,81.82
2017-08-20T02:20:40.228Z,81.45
2017-08-20T02:23:10.031Z,81.62
2017-08-20T02:25:40.117Z,82.24
2017-08-20T02:28:08.743Z,82.22
2017-08-20T02:30:37.424Z,81.21
2017-08-20T02:33:06.032Z,81.23
2017-08-20T02:35:34.853Z,81.42
2017-08-20T02:38:03.844Z,81.54
2017-08-20T02:40:32.730Z,82.38
2017-08-20T02:43:01.329Z,81.47
2017-08-20T02:45:30.103Z,81.27
2017-08-20T02:47:58.729Z,81.22
2017-08-20T02:50:27.451Z,81.15
2017-08-20T02:52:57.749Z,81.70
2017-08-20T02:55:27.301Z,81.73
2017-08-20T02:57:56.669Z,81.70
2017-08-20T03:00:25.225Z,81.63
2017-08-20T03:02:54.083Z,81.67
2017-08-20T03:05:22.685Z,81.70
2017-08-20T03:07:51.913Z,82.73
2017-08-20T03:10:21.283Z,83.38
2017-08-20T03:12:50.335Z,83.58
2017-08-20T03:15:19.111Z,83.14
2017-08-20T03:17:48.149Z,82.93
2017-08-20T03:20:16.717Z,83.53
2017-08-20T03:22:45.811Z,82.45
2017-08-20T03:25:14.457Z,83.01
2017-08-20T03:27:43.040Z,83.85
2017-08-20T03:30:11.527Z,83.33
2017-08-20T03:32:40.738Z,82.78
2017-08-20T03:35:09.337Z,84.28
2017-08-20T03:37:37.893Z,84.80
2017-08-20T03:40:06.903Z,85.05
2017-08-20T03:42:36.349Z,84.66
2017-08-20T03:45:05.285Z,85.06
2017-08-20T03:47:35.283Z,85.11
2017-08-20T03:50:03.877Z,83.59
2017-08-20T03:52:36.180Z,83.24
2017-08-20T03:55:05.677Z,83.16
2017-08-20T03:57:34.699Z,83.05
2017-08-20T04:00:05.148Z,83.25
2017-08-20T04:02:33.975Z,83.59
2017-08-20T04:05:03.126Z,83.19
2017-08-20T04:07:31.939Z,82.65
2017-08-20T04:10:00.655Z,82.65
2017-08-20T04:12:29.900Z,83.00
2017-08-20T04:15:00.157Z,83.15
2017-08-20T04:17:29.282Z,82.99
2017-08-20T04:19:57.733Z,84.56
2017-08-20T04:22:26.149Z,85.08
2017-08-20T04:24:55.598Z,84.29
2017-08-20T04:27:26.349Z,84.75
2017-08-20T04:29:55.047Z,83.29
2017-08-20T04:32:23.786Z,83.16
2017-08-20T04:34:52.816Z,83.16
2017-08-20T04:37:21.312Z,84.33
2017-08-20T04:39:49.825Z,84.06
2017-08-20T04:42:18.823Z,83.37
2017-08-20T04:44:48.143Z,83.44
2017-08-20T04:47:17.049Z,83.40
2017-08-20T04:49:46.090Z,83.48
2017-08-20T04:52:15.012Z,83.66
2017-08-20T04:54:44.657Z,84.74
2017-08-20T04:57:13.385Z,84.24
2017-08-20T04:59:42.264Z,83.65
2017-08-20T05:02:11.737Z,83.59
2017-08-20T05:04:40.951Z,83.76
2017-08-20T05:07:10.244Z,83.93
2017-08-20T05:09:38.975Z,83.67
2017-08-20T05:12:08.686Z,83.48
2017-08-20T05:14:38.485Z,83.82
2017-08-20T05:17:06.983Z,83.21
2017-08-20T05:19:37.903Z,83.31
2017-08-20T05:22:06.602Z,83.17
2017-08-20T05:24:35.528Z,83.61
2017-08-20T05:27:04.248Z,82.87
2017-08-20T05:29:32.954Z,83.11
2017-08-20T05:32:01.672Z,82.99
2017-08-20T05:34:30.302Z,83.39
2017-08-20T05:36:59.144Z,82.75
2017-08-20T05:39:27.580Z,83.08
2017-08-20T05:41:56.493Z,83.01
2017-08-20T05:44:26.785Z,82.68
2017-08-20T05:46:55.533Z,82.84
2017-08-20T05:49:25.176Z,82.89
2017-08-20T05:51:53.824Z,82.66
2017-08-20T05:54:23.060Z,82.54
2017-08-20T05:59:35.121Z,80.36
2017-08-20T06:02:04.208Z,78.69
2017-08-20T06:04:32.645Z,78.52
2017-08-20T06:07:02.248Z,78.41
2017-08-20T06:09:32.020Z,77.26
2017-08-20T06:12:00.897Z,74.67
2017-08-20T06:14:31.327Z,71.93
2017-08-20T06:17:00.816Z,70.47
2017-08-20T06:19:29.216Z,69.44
2017-08-20T06:21:57.652Z,69.70
2017-08-20T06:24:26.277Z,69.34
2017-08-20T06:26:56.564Z,68.60
2017-08-20T06:29:28.132Z,69.13
2017-08-20T06:32:17.852Z,67.61
2017-08-20T06:34:46.409Z,69.09
2017-08-20T06:37:18.468Z,68.53
2017-08-20T06:39:48.479Z,66.43
2017-08-20T06:42:21.787Z,67.21
2017-08-20T06:44:50.276Z,65.13
2017-08-20T06:47:19.930Z,65.39
2017-08-20T06:49:48.313Z,65.35
2017-08-20T06:52:16.933Z,65.83
2017-08-20T06:54:45.708Z,65.20
2017-08-20T06:57:14.372Z,65.27
2017-08-20T06:59:42.964Z,66.92
2017-08-20T07:02:11.448Z,68.13
2017-08-20T07:04:39.932Z,69.11
2017-08-20T07:07:08.356Z,69.61
2017-08-20T07:09:36.799Z,69.65
2017-08-20T07:12:05.306Z,69.58
2017-08-20T07:14:33.708Z,68.96
2017-08-20T07:17:03.710Z,69.74
2017-08-20T07:19:34.142Z,69.49
2017-08-20T07:22:02.700Z,69.73
2017-08-20T07:24:31.191Z,69.34
2017-08-20T07:26:59.660Z,68.22
2017-08-20T07:29:30.981Z,68.61
2017-08-20T07:31:59.901Z,67.94
2017-08-20T07:34:29.492Z,67.99
2017-08-20T07:37:00.275Z,68.12
2017-08-20T07:39:28.767Z,67.35
2017-08-20T07:41:59.193Z,68.02
2017-08-20T07:44:31.553Z,68.98
2017-08-20T07:47:06.821Z,67.96
2017-08-20T07:49:37.130Z,67.96
2017-08-20T07:52:05.655Z,67.20
2017-08-20T07:54:34.104Z,67.21
2017-08-20T07:57:03.084Z,67.56
2017-08-20T07:59:31.627Z,64.79
2017-08-20T08:02:00.102Z,64.93
2017-08-20T08:04:28.558Z,65.56
2017-08-20T08:06:57.085Z,65.40
2017-08-20T08:09:25.942Z,64.66
2017-08-20T08:11:54.369Z,62.27
2017-08-20T08:14:23.040Z,63.66
2017-08-20T08:16:51.518Z,64.81
2017-08-20T08:19:20.040Z,64.21
2017-08-20T08:21:48.471Z,64.61
2017-08-20T08:24:17.130Z,64.06
2017-08-20T08:26:45.672Z,65.39
2017-08-20T08:29:14.139Z,64.36
2017-08-20T08:31:42.578Z,64.56
2017-08-20T08:34:12.065Z,64.78
2017-08-20T08:36:40.565Z,65.21
2017-08-20T08:39:09.033Z,65.11
2017-08-20T08:41:37.443Z,66.01
2017-08-20T08:44:05.869Z,64.50
2017-08-20T08:46:35.097Z,64.28
2017-08-20T08:49:13.425Z,64.28
2017-08-20T08:51:41.892Z,63.80
2017-08-20T08:54:10.415Z,63.52
2017-08-20T08:56:50.480Z,64.36
2017-08-20T08:59:22.980Z,63.78
2017-08-20T09:01:51.589Z,63.68
2017-08-20T09:04:21.206Z,62.00
2017-08-20T09:06:50.192Z,61.98
2017-08-20T09:09:18.645Z,61.58
2017-08-20T09:11:47.541Z,61.36
2017-08-20T09:14:17.040Z,61.25
2017-08-20T09:16:45.619Z,60.36
2017-08-20T09:19:14.254Z,62.22
2017-08-20T09:21:44.524Z,59.97
2017-08-20T09:24:14.967Z,60.05
2017-08-20T09:26:48.270Z,60.36
2017-08-20T09:29:20.694Z,59.53
2017-08-20T09:34:26.892Z,59.86
2017-08-20T09:36:55.458Z,60.42
2017-08-20T09:39:23.983Z,59.88
2017-08-20T09:41:52.470Z,58.96
2017-08-20T09:44:21.053Z,59.48
2017-08-20T09:46:50.373Z,59.92
2017-08-20T09:49:18.927Z,60.72
2017-08-20T09:51:47.582Z,60.71
2017-08-20T09:54:15.984Z,60.68
2017-08-20T09:56:45.645Z,60.07
2017-08-20T09:59:16.061Z,60.67
2017-08-20T10:01:44.642Z,60.07
2017-08-20T10:04:46.770Z,59.95
2017-08-20T10:07:16.437Z,60.76
2017-08-20T10:09:46.139Z,59.76
2017-08-20T10:12:14.690Z,61.24
2017-08-20T10:14:43.186Z,62.14
2017-08-20T10:17:11.716Z,62.68
2017-08-20T10:19:40.478Z,63.11
2017-08-20T10:22:08.971Z,62.85
2017-08-20T10:24:38.534Z,63.36
2017-08-20T10:27:06.996Z,59.28
2017-08-20T10:29:36.473Z,61.29
2017-08-20T10:32:06.222Z,59.71
2017-08-20T10:34:34.990Z,59.43
2017-08-20T10:37:03.844Z,60.98
2017-08-20T10:39:32.891Z,59.59
2017-08-20T10:42:01.348Z,60.50
2017-08-20T10:44:30.487Z,60.06
2017-08-20T10:46:59.080Z,61.57
2017-08-20T10:49:27.599Z,62.04
2017-08-20T10:51:56.293Z,60.32
2017-08-20T10:54:24.712Z,56.97
2017-08-20T10:56:53.199Z,58.21
2017-08-20T10:59:21.673Z,60.75
2017-08-20T11:01:50.160Z,60.88
2017-08-20T11:04:18.734Z,61.74
2017-08-20T11:06:47.600Z,60.45
2017-08-20T11:09:16.018Z,58.31
2017-08-20T11:11:44.470Z,56.71
2017-08-20T11:14:13.041Z,56.78
2017-08-20T11:16:41.605Z,56.79
2017-08-20T11:19:10.065Z,57.13
2017-08-20T11:21:38.604Z,56.25
2017-08-20T11:24:07.200Z,56.53
2017-08-20T11:26:35.688Z,56.35
2017-08-20T11:29:04.206Z,56.87
2017-08-20T11:31:32.737Z,57.79
2017-08-20T11:34:01.260Z,57.97
2017-08-20T11:36:30.005Z,55.30
2017-08-20T11:38:58.430Z,56.04
2017-08-20T11:41:26.954Z,56.14
2017-08-20T11:43:55.446Z,55.89
2017-08-20T11:46:23.858Z,56.30
2017-08-20T11:48:53.040Z,57.65
2017-08-20T11:51:21.577Z,57.80
2017-08-20T11:53:50.061Z,55.62
2017-08-20T11:56:18.649Z,57.71
2017-08-20T11:58:48.937Z,56.95
2017-08-20T12:01:19.012Z,57.45
2017-08-20T12:03:47.641Z,58.55
2017-08-20T12:06:16.115Z,58.70
2017-08-20T12:08:47.284Z,56.10
2017-08-20T12:11:16.050Z,56.11
2017-08-20T12:13:44.884Z,54.99
2017-08-20T12:16:14.143Z,54.92
2017-08-20T12:18:42.680Z,53.76
2017-08-20T12:21:11.326Z,54.32
2017-08-20T12:23:40.462Z,53.79
2017-08-20T12:26:09.385Z,54.71
2017-08-20T12:28:38.274Z,53.02
2017-08-20T12:31:06.969Z,52.95
2017-08-20T12:33:35.437Z,53.64
2017-08-20T12:36:04.184Z,54.52
2017-08-20T12:38:33.020Z,53.77
2017-08-20T12:41:01.865Z,54.67
2017-08-20T12:43:30.428Z,55.78
2017-08-20T12:46:00.303Z,55.09
2017-08-20T12:48:29.503Z,53.77
2017-08-20T12:50:58.858Z,52.63
2017-08-20T12:53:29.573Z,53.17
2017-08-20T12:56:02.986Z,53.54
2017-08-20T12:58:35.442Z,52.61
2017-08-20T13:01:05.114Z,52.94
2017-08-20T13:03:39.115Z,53.09
2017-08-20T13:06:14.467Z,53.72
2017-08-20T13:08:50.401Z,51.65
2017-08-20T13:11:22.328Z,51.28
2017-08-20T13:13:52.748Z,51.62
2017-08-20T13:16:21.650Z,53.05
2017-08-20T13:18:53.270Z,51.32
2017-08-20T13:21:28.458Z,51.02
2017-08-20T13:23:58.361Z,50.74
2017-08-20T13:26:26.935Z,51.16
2017-08-20T13:28:55.699Z,52.21
2017-08-20T13:31:24.324Z,52.13
2017-08-20T13:33:52.937Z,51.49
2017-08-20T13:36:23.547Z,53.40
2017-08-20T13:38:53.043Z,53.24
2017-08-20T13:41:22.736Z,52.62
2017-08-20T13:43:51.194Z,52.96
2017-08-20T13:46:20.207Z,51.21
2017-08-20T13:48:48.677Z,55.03
2017-08-20T13:51:17.328Z,53.72
2017-08-20T13:53:45.837Z,53.59
2017-08-20T13:56:14.662Z,53.40
2017-08-20T13:58:43.237Z,52.72
2017-08-20T14:01:11.800Z,53.02
2017-08-20T14:03:40.436Z,54.03
2017-08-20T14:06:11.728Z,53.21
2017-08-20T14:08:44.544Z,53.41
2017-08-20T14:11:13.982Z,54.75
2017-08-20T14:13:42.440Z,51.22
2017-08-20T14:16:12.914Z,50.98
2017-08-20T14:18:41.820Z,50.13
2017-08-20T14:21:10.696Z,51.70
2017-08-20T14:23:41.306Z,50.69
2017-08-20T14:26:10.141Z,49.98
2017-08-20T14:28:38.804Z,50.37
2017-08-20T14:31:07.528Z,50.12
2017-08-20T14:33:36.600Z,51.84
2017-08-20T14:36:08.539Z,51.18
2017-08-20T14:38:37.312Z,51.06
2017-08-20T14:41:05.912Z,51.36
2017-08-20T14:43:34.732Z,51.25
2017-08-20T14:46:11.800Z,53.47
2017-08-20T14:48:41.658Z,52.52
2017-08-20T14:51:11.404Z,53.83
2017-08-20T14:53:43.187Z,53.97
2017-08-20T14:56:13.965Z,54.65
2017-08-20T14:58:44.204Z,55.74
2017-08-20T15:01:14.055Z,55.71
2017-08-20T15:03:42.581Z,55.49
2017-08-20T15:06:11.033Z,55.86
2017-08-20T15:08:40.106Z,55.95
2017-08-20T15:11:12.228Z,55.33
2017-08-20T15:13:40.846Z,54.27
2017-08-20T15:16:09.403Z,55.75
2017-08-20T15:18:39.689Z,54.97
2017-08-20T15:21:08.247Z,54.67
2017-08-20T15:23:36.790Z,54.42
2017-08-20T15:26:06.612Z,54.45
2017-08-20T15:28:36.816Z,55.92
2017-08-20T15:31:05.719Z,55.28
2017-08-20T15:33:34.158Z,55.87
2017-08-20T15:36:02.632Z,55.25
2017-08-20T15:38:32.573Z,55.28
2017-08-20T15:41:01.433Z,55.17
2017-08-20T15:43:31.836Z,54.57
2017-08-20T15:46:02.106Z,53.76
2017-08-20T15:48:30.665Z,54.28
2017-08-20T15:50:59.237Z,54.89
2017-08-20T15:53:27.775Z,55.78
2017-08-20T15:55:57.698Z,56.26
2017-08-20T15:58:26.306Z,54.70
2017-08-20T16:00:56.308Z,54.37
2017-08-20T16:03:26.054Z,54.93
2017-08-20T16:05:54.586Z,55.03
2017-08-20T16:08:23.037Z,54.80
2017-08-20T16:10:52.487Z,55.63
2017-08-20T16:13:21.273Z,55.50
2017-08-20T16:15:52.750Z,54.99
2017-08-20T16:18:25.437Z,55.19
2017-08-20T16:20:54.935Z,54.85
2017-08-20T16:23:23.636Z,55.16
2017-08-20T16:25:52.155Z,55.37
2017-08-20T16:28:20.573Z,55.87
2017-08-20T16:30:49.096Z,56.32
2017-08-20T16:33:20.826Z,56.64
2017-08-20T16:35:50.956Z,57.33
2017-08-20T16:38:19.591Z,58.27
2017-08-20T16:40:48.016Z,58.64
2017-08-20T16:43:16.446Z,57.69
2017-08-20T16:45:46.874Z,58.52
2017-08-20T16:48:18.468Z,58.84
2017-08-20T16:50:50.247Z,59.76
2017-08-20T16:53:18.829Z,59.74
2017-08-20T16:55:48.197Z,60.00
2017-08-20T16:58:19.941Z,59.80
2017-08-20T17:00:52.920Z,61.28
2017-08-20T17:03:21.946Z,58.44
2017-08-20T17:05:50.564Z,58.40
2017-08-20T17:08:19.915Z,57.57
2017-08-20T17:10:48.830Z,57.22
2017-08-20T17:13:19.238Z,57.44
2017-08-20T17:15:48.316Z,58.59
2017-08-20T17:18:19.558Z,57.96
2017-08-20T17:20:50.083Z,57.63
2017-08-20T17:23:20.070Z,57.98
2017-08-20T17:25:48.677Z,58.58
2017-08-20T17:28:18.197Z,59.17
2017-08-20T17:30:47.176Z,59.29
2017-08-20T17:33:17.552Z,57.60
2017-08-20T17:35:46.470Z,57.40
2017-08-20T17:38:15.180Z,57.98
2017-08-20T17:40:43.938Z,58.94
2017-08-20T17:43:12.748Z,59.77
2017-08-20T17:45:41.709Z,59.05
2017-08-20T17:48:10.316Z,57.97
2017-08-20T17:50:38.827Z,58.55
2017-08-20T17:53:07.613Z,58.73
2017-08-20T17:55:40.148Z,58.19
2017-08-20T17:58:08.878Z,58.86
2017-08-20T18:00:39.785Z,59.61
2017-08-20T18:03:09.072Z,59.33
2017-08-20T18:05:38.578Z,58.82
2017-08-20T18:08:08.442Z,58.95
2017-08-20T18:10:40.134Z,58.95
2017-08-20T18:13:09.082Z,59.45
2017-08-20T18:15:37.592Z,59.60
2017-08-20T18:18:06.206Z,60.35
2017-08-20T18:20:34.692Z,59.91
2017-08-20T18:23:03.228Z,59.98
2017-08-20T18:25:31.805Z,60.66
2017-08-20T18:28:01.809Z,60.42
2017-08-20T18:30:30.453Z,60.11
2017-08-20T18:32:58.972Z,60.31
2017-08-20T18:35:27.500Z,61.22
2017-08-20T18:37:57.066Z,61.50
2017-08-20T18:40:26.395Z,61.39
2017-08-20T18:42:55.436Z,61.34
2017-08-20T18:45:23.997Z,62.16
2017-08-20T18:47:53.513Z,62.67
2017-08-20T18:50:22.134Z,61.82
2017-08-20T18:52:51.713Z,61.81
2017-08-20T18:55:20.515Z,61.63
2017-08-20T18:57:49.009Z,61.69
2017-08-20T19:00:17.479Z,61.71
2017-08-20T19:02:45.965Z,62.13
2017-08-20T19:05:14.847Z,62.47
2017-08-20T19:07:43.320Z,63.15
2017-08-20T19:10:11.833Z,63.33
2017-08-20T19:12:40.311Z,64.18
2017-08-20T19:15:09.240Z,63.70
2017-08-20T19:17:38.374Z,63.46
2017-08-20T19:20:07.890Z,63.62
2017-08-20T19:22:36.756Z,63.54
2017-08-20T19:25:05.791Z,63.95
2017-08-20T19:27:34.583Z,63.93
2017-08-20T19:30:02.999Z,64.45
2017-08-20T19:32:31.506Z,64.92
2017-08-20T19:35:01.153Z,64.81
2017-08-20T19:37:29.896Z,65.55
2017-08-20T19:39:59.064Z,65.97
2017-08-20T19:42:27.844Z,67.17
2017-08-20T19:44:56.225Z,67.05
2017-08-20T19:47:24.689Z,66.86
2017-08-20T19:49:53.197Z,67.00
2017-08-20T19:52:22.847Z,67.74
2017-08-20T19:54:51.709Z,67.65
2017-08-20T19:57:20.376Z,67.85
2017-08-20T19:59:48.957Z,68.28
2017-08-20T20:02:37.085Z,68.64
2017-08-20T20:05:16.302Z,68.73
2017-08-20T20:07:45.918Z,68.92
2017-08-20T20:10:14.681Z,68.83
2017-08-20T20:12:50.787Z,68.59
2017-08-20T20:15:23.308Z,69.34
2017-08-20T20:17:53.433Z,69.71
2017-08-20T20:20:34.170Z,69.52
2017-08-20T20:23:03.317Z,69.42
2017-08-20T20:25:32.175Z,70.19
2017-08-20T20:28:01.601Z,69.93
2017-08-20T20:30:30.367Z,70.11
2017-08-20T20:33:04.846Z,70.86
2017-08-20T20:35:34.172Z,70.51
2017-08-20T20:38:02.743Z,70.42
2017-08-20T20:40:31.528Z,71.12
2017-08-20T20:43:02.273Z,70.37
2017-08-20T20:45:31.878Z,70.87
2017-08-20T20:48:01.169Z,72.49
2017-08-20T20:50:37.097Z,72.08
2017-08-20T20:53:12.837Z,72.58
2017-08-20T20:56:45.895Z,74.07
2017-08-20T20:59:29.076Z,73.71
2017-08-20T21:02:00.250Z,74.43
2017-08-20T21:04:28.800Z,73.73
2017-08-20T21:06:57.346Z,73.34
2017-08-20T21:09:30.073Z,73.83
2017-08-20T21:12:00.503Z,73.64
2017-08-20T21:14:29.119Z,74.75
2017-08-20T21:16:57.591Z,74.10
2017-08-20T21:19:26.495Z,74.06
2017-08-20T21:21:56.396Z,74.20
2017-08-20T21:24:25.124Z,74.09
2017-08-20T21:26:54.304Z,73.92
2017-08-20T21:29:22.820Z,74.43
2017-08-20T21:31:51.264Z,75.13
2017-08-20T21:34:20.615Z,74.66
2017-08-20T21:36:49.277Z,75.24
2017-08-20T21:39:17.988Z,75.56
2017-08-20T21:41:46.620Z,74.76
2017-08-20T21:44:20.204Z,76.21
2017-08-20T21:46:48.962Z,76.90
2017-08-20T21:49:17.552Z,76.62
2017-08-20T21:51:46.529Z,76.84
2017-08-20T21:54:15.168Z,77.34
2017-08-20T21:56:47.840Z,78.08
2017-08-20T21:59:23.535Z,77.53
2017-08-20T22:01:52.350Z,77.16
2017-08-20T22:04:21.085Z,76.92
2017-08-20T22:06:49.722Z,77.37
2017-08-20T22:09:18.276Z,77.36
2017-08-20T22:11:47.069Z,78.31
2017-08-20T22:14:17.082Z,78.76
2017-08-20T22:16:46.450Z,78.03
2017-08-20T22:19:15.342Z,78.59
2017-08-20T22:21:44.057Z,79.18
2017-08-20T22:24:12.953Z,78.49
2017-08-20T22:26:43.783Z,78.79
2017-08-20T22:29:14.182Z,79.52
2017-08-20T22:31:43.284Z,78.88
2017-08-20T22:34:11.740Z,79.25
2017-08-20T22:36:40.212Z,78.54
2017-08-20T22:39:08.832Z,79.70
2017-08-20T22:41:38.068Z,78.90
2017-08-20T22:44:08.859Z,78.88
2017-08-20T22:46:37.599Z,78.77
2017-08-20T22:49:06.209Z,78.94
2017-08-20T22:51:34.786Z,79.48
2017-08-20T22:54:03.434Z,78.92
2017-08-20T22:56:32.233Z,79.37
2017-08-20T22:59:07.128Z,79.88
2017-08-20T23:01:41.316Z,79.60
2017-08-20T23:04:09.910Z,80.14
2017-08-20T23:06:38.520Z,79.35
2017-08-20T23:09:07.646Z,79.50
2017-08-20T23:12:17.349Z,80.48
2017-08-20T23:14:48.764Z,79.42
2017-08-20T23:17:19.017Z,80.36
2017-08-20T23:19:48.683Z,80.15
2017-08-20T23:22:17.396Z,79.81
2017-08-20T23:24:45.913Z,80.18
2017-08-20T23:27:20.033Z,80.79
2017-08-20T23:29:57.610Z,80.57
2017-08-20T23:32:32.845Z,80.25
2017-08-20T23:35:02.327Z,80.32
2017-08-20T23:37:31.301Z,80.72
2017-08-20T23:40:00.135Z,80.39
2017-08-20T23:42:28.792Z,80.82
2017-08-20T23:45:06.808Z,80.80
2017-08-20T23:47:35.995Z,80.59
2017-08-20T23:50:04.602Z,80.75
2017-08-20T23:52:33.184Z,81.40
2017-08-20T23:55:05.755Z,80.59
2017-08-20T23:57:34.704Z,80.64
